Aviation Digital Data Service (ADDS)

Output produced by METARs form (0454 UTC 24 July 2016)
found at http://aviationweather.gov/adds/metars/
 
KGSO 232320Z 2400/2424 VRB05KT P6SM SCT050